Time;durP1;ratioP1;P1;durP2;ratioP2;P2;SDS_P1;SDS_P2;PMS_P1;PMS_P2;Temp;Humidity;BMP_temperature;BMP_pressure;BME280_temperature;BME280_humidity;BME280_pressure;Samples;Min_cycle;Max_cycle;Signal;HPM_P1;HPM_P2
2022/11/26 00:01:18;;;;;;;44.75;11.57;;;;;;;;;;4997521;28;20458;-72
2022/11/26 00:03:43;;;;;;;40.20;13.32;;;;;;;;;;4995792;28;21665;-71
2022/11/26 00:06:17;;;;;;;38.33;11.82;;;;;;;;;;5000393;28;20083;-71
2022/11/26 00:08:42;;;;;;;45.08;12.98;;;;;;;;;;4999349;28;20053;-71
2022/11/26 00:11:10;;;;;;;47.05;13.05;;;;;;;;;;5005138;28;20087;-72
2022/11/26 00:13:35;;;;;;;43.10;12.88;;;;;;;;;;5002301;28;20032;-72
2022/11/26 00:16:00;;;;;;;43.73;12.37;;;;;;;;;;4998101;28;20026;-72
2022/11/26 00:18:25;;;;;;;44.47;12.50;;;;;;;;;;5004548;28;20281;-72
2022/11/26 00:20:55;;;;;;;45.00;12.37;;;;;;;;;;5001639;28;20629;-72
2022/11/26 00:23:22;;;;;;;35.20;11.95;;;;;;;;;;5000398;28;20376;-72
2022/11/26 00:25:49;;;;;;;37.33;11.18;;;;;;;;;;5006397;28;20026;-72
2022/11/26 00:28:26;;;;;;;52.63;13.27;;;;;;;;;;5001806;28;20041;-72
2022/11/26 00:30:52;;;;;;;50.47;11.25;;;;;;;;;;4995421;28;20110;-72
2022/11/26 00:33:17;;;;;;;32.72;9.70;;;;;;;;;;5004629;28;20112;-72
2022/11/26 00:35:45;;;;;;;25.65;10.60;;;;;;;;;;4999469;28;20108;-70
2022/11/26 00:38:13;;;;;;;38.25;10.20;;;;;;;;;;4996268;28;20033;-72
2022/11/26 00:40:39;;;;;;;41.53;10.85;;;;;;;;;;4994943;28;20045;-70
2022/11/26 00:43:04;;;;;;;28.58;8.52;;;;;;;;;;5006712;28;20534;-69
2022/11/26 00:45:30;;;;;;;35.15;8.85;;;;;;;;;;5003834;28;20056;-72
2022/11/26 00:48:00;;;;;;;29.60;8.88;;;;;;;;;;4997910;28;20398;-71
2022/11/26 00:50:26;;;;;;;29.13;9.02;;;;;;;;;;4996600;28;20499;-71
2022/11/26 00:52:55;;;;;;;25.00;9.65;;;;;;;;;;4994619;28;20041;-72
2022/11/26 00:55:23;;;;;;;36.28;8.88;;;;;;;;;;4998709;28;20030;-72
2022/11/26 00:57:49;;;;;;;28.27;9.93;;;;;;;;;;5001822;28;20049;-72
2022/11/26 01:00:19;;;;;;;39.17;8.85;;;;;;;;;;4997529;28;20112;-69
2022/11/26 01:02:44;;;;;;;38.58;8.18;;;;;;;;;;5000693;28;20382;-71
2022/11/26 01:05:10;;;;;;;29.92;8.93;;;;;;;;;;4999495;28;20026;-72
2022/11/26 01:07:35;;;;;;;38.03;8.75;;;;;;;;;;4995106;28;20089;-72
2022/11/26 01:10:00;;;;;;;30.85;9.10;;;;;;;;;;5001612;28;20157;-72
2022/11/26 01:12:25;;;;;;;33.77;8.70;;;;;;;;;;4993359;28;20057;-71
2022/11/26 01:14:50;;;;;;;25.38;8.68;;;;;;;;;;4997025;28;20304;-72
2022/11/26 01:17:16;;;;;;;27.60;8.97;;;;;;;;;;4996336;28;20026;-71
2022/11/26 01:19:41;;;;;;;30.98;8.77;;;;;;;;;;5001779;28;20265;-71
2022/11/26 01:22:08;;;;;;;36.70;9.27;;;;;;;;;;4996681;28;20103;-72
2022/11/26 01:24:34;;;;;;;26.48;8.38;;;;;;;;;;4995208;28;20273;-72
2022/11/26 01:26:59;;;;;;;35.60;8.23;;;;;;;;;;5003518;28;20024;-72
2022/11/26 01:29:24;;;;;;;37.00;8.45;;;;;;;;;;4999285;28;20031;-71
2022/11/26 01:31:49;;;;;;;39.87;9.47;;;;;;;;;;4994462;28;20391;-72
2022/11/26 01:34:15;;;;;;;34.08;7.85;;;;;;;;;;5000300;28;20291;-72
2022/11/26 01:36:41;;;;;;;27.63;8.30;;;;;;;;;;4997108;28;20387;-71
2022/11/26 01:39:11;;;;;;;34.50;7.18;;;;;;;;;;5004163;28;20362;-72
2022/11/26 01:41:44;;;;;;;38.10;9.43;;;;;;;;;;5000443;28;20015;-69
2022/11/26 01:44:15;;;;;;;35.05;7.90;;;;;;;;;;5001241;28;20034;-72
2022/11/26 01:46:40;;;;;;;39.85;8.02;;;;;;;;;;4997505;28;20076;-72
2022/11/26 01:49:22;;;;;;;26.17;9.00;;;;;;;;;;5000468;28;20015;-71
2022/11/26 01:51:49;;;;;;;28.75;8.75;;;;;;;;;;4998732;28;20356;-71
2022/11/26 01:54:15;;;;;;;39.28;9.27;;;;;;;;;;5000568;28;20033;-72
2022/11/26 01:56:51;;;;;;;28.33;9.52;;;;;;;;;;5000671;28;20080;-72
2022/11/26 01:59:20;;;;;;;34.05;9.80;;;;;;;;;;5005728;28;20033;-71
2022/11/26 02:01:47;;;;;;;33.33;9.27;;;;;;;;;;5006004;28;20034;-71
2022/11/26 02:04:16;;;;;;;38.88;9.45;;;;;;;;;;5000215;28;20019;-72
2022/11/26 02:06:42;;;;;;;32.17;8.80;;;;;;;;;;4996211;28;20609;-72
2022/11/26 02:09:08;;;;;;;31.98;8.93;;;;;;;;;;5005967;28;20045;-71
2022/11/26 02:11:33;;;;;;;19.45;8.40;;;;;;;;;;5003173;28;20406;-71
2022/11/26 02:14:04;;;;;;;29.15;8.60;;;;;;;;;;5000267;28;20017;-71
2022/11/26 02:16:36;;;;;;;29.73;8.38;;;;;;;;;;5004003;28;20029;-71
2022/11/26 02:19:13;;;;;;;33.00;8.50;;;;;;;;;;4998309;28;20121;-72
2022/11/26 02:21:40;;;;;;;36.40;9.07;;;;;;;;;;5001285;28;20046;-72
2022/11/26 02:24:11;;;;;;;33.28;8.32;;;;;;;;;;5001598;28;20437;-71
2022/11/26 02:26:44;;;;;;;45.67;8.05;;;;;;;;;;5003370;28;20025;-71
2022/11/26 02:29:13;;;;;;;29.55;8.60;;;;;;;;;;5004819;28;20623;-72
2022/11/26 02:31:42;;;;;;;36.45;8.45;;;;;;;;;;5002870;28;20021;-72
2022/11/26 02:34:13;;;;;;;36.83;8.93;;;;;;;;;;4997718;28;20406;-72
2022/11/26 02:36:46;;;;;;;27.25;8.88;;;;;;;;;;5005471;28;20465;-72
2022/11/26 02:39:13;;;;;;;38.53;9.68;;;;;;;;;;5001726;28;20018;-69
2022/11/26 02:41:45;;;;;;;37.67;8.60;;;;;;;;;;4998815;28;20671;-71
2022/11/26 02:44:12;;;;;;;23.30;8.73;;;;;;;;;;5001639;28;20489;-71
2022/11/26 02:46:38;;;;;;;33.08;9.63;;;;;;;;;;5003766;28;20014;-72
2022/11/26 02:49:04;;;;;;;26.25;9.52;;;;;;;;;;5004082;28;20026;-72
2022/11/26 02:51:29;;;;;;;29.35;9.15;;;;;;;;;;5005205;28;20497;-70
2022/11/26 02:53:54;;;;;;;34.67;9.75;;;;;;;;;;4996068;28;20022;-72
2022/11/26 02:56:21;;;;;;;42.53;10.90;;;;;;;;;;5002862;28;20538;-71
2022/11/26 02:58:47;;;;;;;36.47;9.85;;;;;;;;;;5001103;28;20029;-72
2022/11/26 03:01:17;;;;;;;39.17;10.82;;;;;;;;;;5003832;28;20025;-71
2022/11/26 03:03:45;;;;;;;31.63;10.45;;;;;;;;;;4997086;28;20114;-71
2022/11/26 03:06:11;;;;;;;36.58;9.45;;;;;;;;;;4999765;28;20033;-71
2022/11/26 03:08:37;;;;;;;45.30;10.23;;;;;;;;;;4993159;28;20093;-72
2022/11/26 03:11:02;;;;;;;54.70;11.60;;;;;;;;;;5009514;28;20539;-71
2022/11/26 03:13:28;;;;;;;40.10;10.02;;;;;;;;;;5004549;28;20391;-70
2022/11/26 03:15:53;;;;;;;42.15;10.80;;;;;;;;;;4999460;28;20046;-71
2022/11/26 03:18:18;;;;;;;35.55;11.10;;;;;;;;;;4999045;28;20068;-71
2022/11/26 03:20:43;;;;;;;47.80;11.00;;;;;;;;;;5003878;28;20026;-72
2022/11/26 03:23:08;;;;;;;38.77;10.53;;;;;;;;;;5000743;28;20030;-72
2022/11/26 03:25:34;;;;;;;47.50;10.93;;;;;;;;;;5000178;28;20277;-71
2022/11/26 03:27:59;;;;;;;34.95;10.52;;;;;;;;;;5006163;28;20053;-71
2022/11/26 03:30:24;;;;;;;51.83;11.55;;;;;;;;;;4998700;28;20113;-71
2022/11/26 03:32:49;;;;;;;37.55;10.30;;;;;;;;;;5006746;28;20560;-70
2022/11/26 03:35:14;;;;;;;46.53;10.35;;;;;;;;;;4997153;28;20034;-70
2022/11/26 03:37:40;;;;;;;25.52;8.45;;;;;;;;;;4994857;28;20030;-70
2022/11/26 03:40:06;;;;;;;39.67;15.33;;;;;;;;;;4998619;28;20032;-71
2022/11/26 03:42:31;;;;;;;37.47;10.80;;;;;;;;;;4998842;28;20289;-71
2022/11/26 03:44:56;;;;;;;41.17;10.37;;;;;;;;;;5000382;28;20031;-70
2022/11/26 03:47:21;;;;;;;44.92;11.93;;;;;;;;;;4999750;28;20315;-71
2022/11/26 03:49:46;;;;;;;47.40;11.07;;;;;;;;;;4993020;28;20093;-72
2022/11/26 03:52:12;;;;;;;46.50;12.33;;;;;;;;;;5000710;28;20030;-71
2022/11/26 03:54:37;;;;;;;40.03;10.75;;;;;;;;;;4999807;28;20296;-69
2022/11/26 03:57:02;;;;;;;33.50;10.43;;;;;;;;;;4999401;28;20037;-71
2022/11/26 03:59:27;;;;;;;49.17;12.05;;;;;;;;;;4998959;28;20044;-70
2022/11/26 04:01:52;;;;;;;43.47;10.70;;;;;;;;;;4996525;28;20029;-71
2022/11/26 04:04:17;;;;;;;32.33;11.20;;;;;;;;;;4999539;28;20037;-71
2022/11/26 04:06:43;;;;;;;39.30;12.60;;;;;;;;;;4999414;28;20026;-71
2022/11/26 04:09:08;;;;;;;46.83;12.30;;;;;;;;;;5000768;28;20281;-72
2022/11/26 04:11:33;;;;;;;37.80;10.38;;;;;;;;;;5001264;28;20273;-71
2022/11/26 04:13:58;;;;;;;41.03;11.10;;;;;;;;;;4990935;28;20014;-71
2022/11/26 04:16:24;;;;;;;29.20;10.05;;;;;;;;;;4998620;28;20280;-68
2022/11/26 04:18:49;;;;;;;41.10;11.60;;;;;;;;;;4998226;28;20053;-71
2022/11/26 04:21:14;;;;;;;42.27;10.23;;;;;;;;;;4995522;28;20305;-70
2022/11/26 04:23:39;;;;;;;35.93;11.53;;;;;;;;;;4991294;28;20284;-69
2022/11/26 04:26:04;;;;;;;38.45;10.70;;;;;;;;;;5001721;28;20276;-72
2022/11/26 04:28:29;;;;;;;35.63;12.20;;;;;;;;;;4999111;28;20029;-69
2022/11/26 04:30:55;;;;;;;36.42;9.90;;;;;;;;;;4997774;28;20641;-69
2022/11/26 04:33:20;;;;;;;37.07;11.50;;;;;;;;;;4999681;28;20026;-69
2022/11/26 04:35:45;;;;;;;29.93;10.20;;;;;;;;;;4998382;28;20789;-69
2022/11/26 04:38:10;;;;;;;34.83;11.10;;;;;;;;;;4996191;28;20286;-69
2022/11/26 04:40:35;;;;;;;44.50;10.73;;;;;;;;;;4999190;28;20029;-69
2022/11/26 04:43:00;;;;;;;29.77;10.87;;;;;;;;;;4999349;28;20339;-69
2022/11/26 04:45:26;;;;;;;31.37;10.63;;;;;;;;;;5005928;28;20373;-70
2022/11/26 04:47:51;;;;;;;32.45;10.02;;;;;;;;;;5005792;28;20327;-72
2022/11/26 04:50:16;;;;;;;33.97;10.50;;;;;;;;;;5000033;28;20026;-72
2022/11/26 04:52:41;;;;;;;40.58;11.20;;;;;;;;;;4995772;28;20022;-69
2022/11/26 04:55:07;;;;;;;28.73;9.77;;;;;;;;;;4998787;28;20022;-71
2022/11/26 04:57:32;;;;;;;37.05;10.18;;;;;;;;;;4995913;28;20439;-72
2022/11/26 04:59:57;;;;;;;32.55;9.93;;;;;;;;;;4994333;28;20010;-73
2022/11/26 05:02:22;;;;;;;30.77;11.05;;;;;;;;;;5005826;28;20048;-69
2022/11/26 05:04:49;;;;;;;40.10;9.90;;;;;;;;;;4998772;28;20022;-72
2022/11/26 05:07:14;;;;;;;27.10;10.35;;;;;;;;;;4997216;28;20050;-70
2022/11/26 05:09:39;;;;;;;33.27;9.43;;;;;;;;;;4998905;28;20502;-68
2022/11/26 05:12:04;;;;;;;30.23;9.87;;;;;;;;;;5000030;28;20273;-70
2022/11/26 05:14:29;;;;;;;33.03;9.73;;;;;;;;;;5001975;28;20653;-68
2022/11/26 05:16:54;;;;;;;20.97;8.40;;;;;;;;;;4997988;28;20037;-69
2022/11/26 05:19:20;;;;;;;25.33;9.03;;;;;;;;;;4995528;28;20269;-69
2022/11/26 05:21:45;;;;;;;33.13;10.98;;;;;;;;;;4999930;28;20281;-69
2022/11/26 05:24:11;;;;;;;29.20;8.90;;;;;;;;;;4996099;28;20035;-71
2022/11/26 05:26:36;;;;;;;24.00;8.48;;;;;;;;;;5003929;28;20022;-68
2022/11/26 05:29:01;;;;;;;41.13;10.00;;;;;;;;;;5002342;28;20029;-69
2022/11/26 05:31:27;;;;;;;39.35;9.45;;;;;;;;;;4997918;28;20513;-68
2022/11/26 05:33:53;;;;;;;22.25;7.80;;;;;;;;;;5000002;28;20127;-71
2022/11/26 05:36:18;;;;;;;28.20;9.20;;;;;;;;;;5002053;28;20106;-69
2022/11/26 05:38:43;;;;;;;31.03;8.30;;;;;;;;;;4997762;28;20028;-69
2022/11/26 05:41:08;;;;;;;28.47;8.70;;;;;;;;;;5009830;28;20753;-69
2022/11/26 05:43:33;;;;;;;27.27;8.77;;;;;;;;;;5008157;28;20279;-69
2022/11/26 05:46:02;;;;;;;22.93;8.17;;;;;;;;;;5005273;28;20403;-68
2022/11/26 05:48:28;;;;;;;33.28;9.23;;;;;;;;;;5006330;28;20320;-69
2022/11/26 05:50:57;;;;;;;29.07;8.03;;;;;;;;;;5005162;28;20505;-69
2022/11/26 05:53:22;;;;;;;33.13;6.75;;;;;;;;;;4997560;28;20285;-68
2022/11/26 05:55:47;;;;;;;20.93;7.73;;;;;;;;;;5004716;28;20054;-69
2022/11/26 05:58:12;;;;;;;17.90;3.42;;;;;;;;;;5000108;28;20284;-68
2022/11/26 06:00:37;;;;;;;25.53;5.73;;;;;;;;;;5008160;28;20493;-71
2022/11/26 06:03:03;;;;;;;16.77;7.03;;;;;;;;;;5005503;28;20249;-68
2022/11/26 06:05:28;;;;;;;32.53;7.37;;;;;;;;;;5005977;28;20437;-70
2022/11/26 06:07:53;;;;;;;23.73;6.10;;;;;;;;;;5001578;28;20289;-68
2022/11/26 06:10:18;;;;;;;20.67;6.80;;;;;;;;;;5007503;28;20030;-69
2022/11/26 06:12:43;;;;;;;36.22;7.72;;;;;;;;;;5000348;28;20022;-71
2022/11/26 06:15:09;;;;;;;19.07;8.07;;;;;;;;;;5004898;28;20026;-72
2022/11/26 06:17:34;;;;;;;21.60;7.25;;;;;;;;;;5002534;28;20281;-70
2022/11/26 06:19:59;;;;;;;37.10;7.70;;;;;;;;;;5000385;28;20161;-69
2022/11/26 06:22:24;;;;;;;25.97;6.33;;;;;;;;;;5006545;28;20296;-73
2022/11/26 06:24:49;;;;;;;36.33;7.63;;;;;;;;;;5007812;28;20300;-68
2022/11/26 06:27:14;;;;;;;22.83;6.43;;;;;;;;;;5001503;28;20281;-73
2022/11/26 06:29:39;;;;;;;25.30;7.47;;;;;;;;;;5003189;28;20300;-68
2022/11/26 06:32:05;;;;;;;26.37;7.93;;;;;;;;;;5005227;28;20622;-71
2022/11/26 06:34:30;;;;;;;23.58;7.00;;;;;;;;;;5004665;28;20289;-68
2022/11/26 06:36:55;;;;;;;26.02;6.82;;;;;;;;;;5005608;28;20060;-71
2022/11/26 06:39:20;;;;;;;26.35;8.13;;;;;;;;;;5005232;28;20162;-68
2022/11/26 06:41:45;;;;;;;19.40;6.67;;;;;;;;;;5004927;28;20033;-70
2022/11/26 06:44:10;;;;;;;28.37;7.60;;;;;;;;;;5000268;28;20285;-72
2022/11/26 06:46:36;;;;;;;23.97;6.87;;;;;;;;;;5003673;28;20277;-70
2022/11/26 06:49:01;;;;;;;28.40;6.90;;;;;;;;;;5001034;28;20292;-68
2022/11/26 06:51:27;;;;;;;25.00;6.30;;;;;;;;;;5008328;28;20273;-74
2022/11/26 06:53:52;;;;;;;24.33;7.88;;;;;;;;;;5007014;28;20113;-72
2022/11/26 06:56:17;;;;;;;19.17;5.85;;;;;;;;;;4998547;28;20093;-71
2022/11/26 06:58:43;;;;;;;23.50;6.95;;;;;;;;;;5004457;28;20056;-68
2022/11/26 07:01:09;;;;;;;27.15;6.43;;;;;;;;;;5004102;28;20343;-72
2022/11/26 07:03:34;;;;;;;21.15;6.57;;;;;;;;;;5005848;28;20033;-72
2022/11/26 07:05:59;;;;;;;21.92;7.28;;;;;;;;;;5004911;28;20018;-69
2022/11/26 07:08:25;;;;;;;27.35;8.90;;;;;;;;;;5006860;28;20470;-68
2022/11/26 07:10:50;;;;;;;27.52;8.70;;;;;;;;;;5003818;28;20026;-68
2022/11/26 07:13:15;;;;;;;32.30;7.37;;;;;;;;;;4999561;28;20037;-71
2022/11/26 07:15:40;;;;;;;27.93;7.30;;;;;;;;;;5000229;28;20273;-71
2022/11/26 07:18:05;;;;;;;27.30;7.10;;;;;;;;;;5004958;28;20301;-71
2022/11/26 07:20:30;;;;;;;32.03;8.37;;;;;;;;;;5008200;28;20338;-70
2022/11/26 07:22:55;;;;;;;20.60;6.67;;;;;;;;;;4998552;28;20292;-71
2022/11/26 07:25:21;;;;;;;29.63;6.83;;;;;;;;;;5003515;28;20330;-70
2022/11/26 07:27:46;;;;;;;36.60;7.83;;;;;;;;;;5000891;28;20383;-71
2022/11/26 07:30:12;;;;;;;19.97;7.33;;;;;;;;;;5001438;28;20291;-70
2022/11/26 07:32:37;;;;;;;31.60;6.82;;;;;;;;;;5003113;28;20325;-71
2022/11/26 07:35:03;;;;;;;22.75;6.20;;;;;;;;;;4995969;28;20368;-72
2022/11/26 07:37:28;;;;;;;25.17;7.00;;;;;;;;;;4994814;28;20511;-70
2022/11/26 07:39:54;;;;;;;20.40;6.18;;;;;;;;;;5002176;28;20025;-71
2022/11/26 07:42:19;;;;;;;23.17;6.90;;;;;;;;;;5001424;28;20526;-70
2022/11/26 07:44:44;;;;;;;29.83;7.10;;;;;;;;;;4998259;28;20029;-67
2022/11/26 07:47:09;;;;;;;33.27;7.50;;;;;;;;;;5001057;28;20296;-72
2022/11/26 07:49:35;;;;;;;16.77;6.53;;;;;;;;;;4997747;28;20273;-70
2022/11/26 07:52:00;;;;;;;21.23;5.65;;;;;;;;;;4997808;28;20285;-69
2022/11/26 07:54:26;;;;;;;30.27;5.50;;;;;;;;;;5006428;28;20477;-73
2022/11/26 07:56:51;;;;;;;25.13;6.13;;;;;;;;;;4999382;28;20357;-69
2022/11/26 07:59:16;;;;;;;25.60;6.33;;;;;;;;;;5003087;28;20364;-69
2022/11/26 08:01:41;;;;;;;16.70;5.63;;;;;;;;;;4999405;28;20273;-72
2022/11/26 08:04:06;;;;;;;7.63;4.25;;;;;;;;;;5002682;28;20068;-69
2022/11/26 08:06:32;;;;;;;27.00;6.00;;;;;;;;;;5006021;28;20085;-69
2022/11/26 08:08:58;;;;;;;12.63;5.90;;;;;;;;;;5004336;28;20058;-69
2022/11/26 08:11:24;;;;;;;25.17;5.75;;;;;;;;;;5003535;28;20482;-68
2022/11/26 08:13:53;;;;;;;17.80;2.42;;;;;;;;;;5003316;28;20609;-73
2022/11/26 08:16:18;;;;;;;20.92;4.78;;;;;;;;;;5004373;28;20026;-74
2022/11/26 08:18:43;;;;;;;17.50;4.30;;;;;;;;;;5002503;28;20499;-69
2022/11/26 08:21:09;;;;;;;8.70;4.20;;;;;;;;;;4999515;28;20349;-71
2022/11/26 08:23:34;;;;;;;22.58;5.47;;;;;;;;;;5002314;28;20269;-69
2022/11/26 08:26:10;;;;;;;13.48;3.42;;;;;;;;;;5004045;28;20490;-72
2022/11/26 08:28:35;;;;;;;18.85;4.72;;;;;;;;;;5003063;28;20121;-69
2022/11/26 08:31:02;;;;;;;15.02;5.20;;;;;;;;;;5004112;28;20085;-70
2022/11/26 08:33:27;;;;;;;20.67;4.32;;;;;;;;;;4997829;28;20025;-71
2022/11/26 08:35:54;;;;;;;14.98;3.13;;;;;;;;;;5000702;28;20033;-69
2022/11/26 08:38:19;;;;;;;11.20;3.20;;;;;;;;;;5002467;28;20028;-72
2022/11/26 08:40:44;;;;;;;10.98;3.40;;;;;;;;;;5004736;28;20039;-70
2022/11/26 08:43:09;;;;;;;16.93;3.60;;;;;;;;;;4998534;28;20101;-76
2022/11/26 08:45:35;;;;;;;17.97;5.30;;;;;;;;;;4996856;28;20280;-70
2022/11/26 08:48:00;;;;;;;12.73;3.10;;;;;;;;;;4999257;28;20365;-71
2022/11/26 08:50:25;;;;;;;7.93;3.13;;;;;;;;;;5002337;28;20283;-69
2022/11/26 08:52:50;;;;;;;20.40;4.35;;;;;;;;;;5003323;28;20022;-71
2022/11/26 08:55:15;;;;;;;12.33;2.93;;;;;;;;;;5001236;28;20030;-73
2022/11/26 08:57:41;;;;;;;9.00;2.73;;;;;;;;;;5000648;28;21010;-70
2022/11/26 09:00:06;;;;;;;20.17;4.50;;;;;;;;;;4998600;28;20323;-71
2022/11/26 09:02:32;;;;;;;14.23;3.97;;;;;;;;;;4998838;28;20117;-69
2022/11/26 09:04:57;;;;;;;18.40;4.43;;;;;;;;;;5003774;28;20028;-71
2022/11/26 09:07:22;;;;;;;16.23;3.63;;;;;;;;;;5007502;28;20041;-71
2022/11/26 09:09:47;;;;;;;19.30;3.83;;;;;;;;;;5005156;28;20757;-69
2022/11/26 09:12:12;;;;;;;10.75;3.25;;;;;;;;;;5010811;28;20273;-71
2022/11/26 09:14:38;;;;;;;7.13;3.27;;;;;;;;;;5005573;28;20084;-70
2022/11/26 09:17:04;;;;;;;7.45;1.77;;;;;;;;;;5005363;28;20272;-74
2022/11/26 09:19:30;;;;;;;14.15;3.72;;;;;;;;;;5004532;28;20022;-72
2022/11/26 09:21:55;;;;;;;8.68;2.50;;;;;;;;;;5005064;28;20026;-71
2022/11/26 09:24:20;;;;;;;17.15;4.65;;;;;;;;;;5002131;28;20026;-69
2022/11/26 09:26:47;;;;;;;14.60;3.40;;;;;;;;;;5009346;28;20041;-70
2022/11/26 09:29:13;;;;;;;14.10;3.20;;;;;;;;;;5004024;28;20458;-70
2022/11/26 09:31:38;;;;;;;13.68;4.72;;;;;;;;;;5010367;28;20367;-69
2022/11/26 09:34:03;;;;;;;31.15;6.97;;;;;;;;;;5000689;28;20029;-72
2022/11/26 09:36:28;;;;;;;12.00;3.58;;;;;;;;;;4998562;28;20045;-70
2022/11/26 09:38:54;;;;;;;5.93;2.45;;;;;;;;;;5004490;28;20050;-72
2022/11/26 09:41:35;;;;;;;13.38;3.03;;;;;;;;;;5006070;28;20513;-70
2022/11/26 09:44:00;;;;;;;11.52;3.53;;;;;;;;;;5002196;28;20018;-72
2022/11/26 09:46:48;;;;;;;22.58;3.70;;;;;;;;;;5006166;28;20395;-69
2022/11/26 09:49:14;;;;;;;9.52;3.20;;;;;;;;;;5003117;28;20026;-70
2022/11/26 09:51:41;;;;;;;16.65;3.63;;;;;;;;;;5009596;28;20033;-70
2022/11/26 09:54:09;;;;;;;12.18;3.95;;;;;;;;;;5002757;28;20113;-69
2022/11/26 09:56:35;;;;;;;20.58;4.28;;;;;;;;;;5006054;28;20030;-73
2022/11/26 09:59:03;;;;;;;9.07;2.75;;;;;;;;;;5002953;28;20022;-71
2022/11/26 10:01:30;;;;;;;10.75;2.65;;;;;;;;;;5007470;28;20080;-70
2022/11/26 10:03:55;;;;;;;9.00;1.88;;;;;;;;;;5005845;28;20402;-71
2022/11/26 10:06:39;;;;;;;15.20;3.78;;;;;;;;;;5004285;28;20022;-71
2022/11/26 10:09:13;;;;;;;14.32;4.10;;;;;;;;;;5002982;28;20026;-70
2022/11/26 10:11:48;;;;;;;11.88;3.33;;;;;;;;;;5000761;28;20084;-74
2022/11/26 10:14:16;;;;;;;12.05;3.35;;;;;;;;;;5008399;28;20028;-70
2022/11/26 10:16:44;;;;;;;19.42;3.97;;;;;;;;;;5001911;28;20478;-70
2022/11/26 10:19:39;;;;;;;8.73;2.60;;;;;;;;;;5002195;28;20471;-70
2022/11/26 10:22:12;;;;;;;19.75;3.40;;;;;;;;;;5006566;28;20024;-73
2022/11/26 10:24:40;;;;;;;15.32;4.03;;;;;;;;;;5000163;28;20085;-70
2022/11/26 10:27:11;;;;;;;21.10;3.70;;;;;;;;;;5003702;28;20822;-70
2022/11/26 10:29:38;;;;;;;12.88;3.92;;;;;;;;;;5018502;22;20125;-68
2022/11/26 10:32:13;;;;;;;12.93;4.03;;;;;;;;;;5003462;28;20022;-68
2022/11/26 10:34:46;;;;;;;12.32;3.28;;;;;;;;;;5005737;28;20022;-68
2022/11/26 10:37:12;;;;;;;12.95;3.70;;;;;;;;;;5010559;28;20025;-68
2022/11/26 10:39:37;;;;;;;8.38;2.72;;;;;;;;;;5004362;28;20021;-68
2022/11/26 10:42:03;;;;;;;13.13;4.10;;;;;;;;;;5005708;28;20025;-69
2022/11/26 10:44:29;;;;;;;14.35;4.75;;;;;;;;;;5002807;28;20262;-68
2022/11/26 10:46:54;;;;;;;7.47;1.93;;;;;;;;;;5002366;28;20368;-68
2022/11/26 10:49:27;;;;;;;13.68;3.60;;;;;;;;;;4998508;28;20304;-69
2022/11/26 10:51:55;;;;;;;15.55;3.83;;;;;;;;;;5007598;28;20021;-69
2022/11/26 10:54:24;;;;;;;10.55;3.33;;;;;;;;;;5006906;28;20512;-69
2022/11/26 10:56:53;;;;;;;13.00;2.65;;;;;;;;;;5001679;28;20077;-68
2022/11/26 10:59:33;;;;;;;12.68;3.05;;;;;;;;;;5003573;28;20029;-68
2022/11/26 11:02:02;;;;;;;6.88;2.75;;;;;;;;;;5000649;28;20022;-69
2022/11/26 11:04:33;;;;;;;16.15;4.10;;;;;;;;;;5001848;28;20030;-68
2022/11/26 11:06:58;;;;;;;15.10;4.38;;;;;;;;;;5002071;28;20474;-68
2022/11/26 11:09:26;;;;;;;19.53;4.17;;;;;;;;;;5001646;28;20099;-68
2022/11/26 11:12:06;;;;;;;8.88;3.17;;;;;;;;;;5005836;28;20783;-68
2022/11/26 11:14:32;;;;;;;23.35;5.63;;;;;;;;;;5004737;28;20033;-68
2022/11/26 11:16:57;;;;;;;17.55;5.95;;;;;;;;;;5006137;28;20028;-68
2022/11/26 11:19:23;;;;;;;17.07;4.00;;;;;;;;;;5008364;28;20076;-68
2022/11/26 11:21:49;;;;;;;8.63;3.90;;;;;;;;;;5003676;28;20273;-69
2022/11/26 11:24:16;;;;;;;5.90;2.40;;;;;;;;;;5001232;28;20466;-69
2022/11/26 11:26:42;;;;;;;8.77;2.15;;;;;;;;;;5007708;28;20083;-69
2022/11/26 11:29:22;;;;;;;8.75;1.98;;;;;;;;;;5000585;28;20091;-68
2022/11/26 11:31:47;;;;;;;5.75;2.38;;;;;;;;;;5009559;28;20474;-68
2022/11/26 11:34:18;;;;;;;9.53;3.10;;;;;;;;;;5004464;28;20179;-69
2022/11/26 11:36:56;;;;;;;17.95;3.80;;;;;;;;;;4991548;28;20335;-69
2022/11/26 11:39:31;;;;;;;15.05;3.75;;;;;;;;;;4999394;28;20026;-69
2022/11/26 11:41:58;;;;;;;15.70;4.20;;;;;;;;;;4999932;28;20023;-68
2022/11/26 11:44:49;;;;;;;8.05;2.33;;;;;;;;;;4998793;28;20034;-69
2022/11/26 11:47:21;;;;;;;6.32;2.15;;;;;;;;;;4999777;28;20488;-69
2022/11/26 11:50:05;;;;;;;8.27;2.42;;;;;;;;;;5001315;28;20033;-69
2022/11/26 11:52:33;;;;;;;18.50;3.08;;;;;;;;;;4997544;28;20058;-69
2022/11/26 11:55:01;;;;;;;17.95;2.40;;;;;;;;;;5003064;28;20022;-69
2022/11/26 11:57:52;;;;;;;8.65;2.92;;;;;;;;;;4998049;28;20032;-69
2022/11/26 12:00:31;;;;;;;15.00;3.80;;;;;;;;;;4996416;28;20018;-69
2022/11/26 12:02:59;;;;;;;13.50;3.47;;;;;;;;;;4995376;28;20026;-68
2022/11/26 12:05:40;;;;;;;5.28;2.40;;;;;;;;;;4997282;28;20033;-69
2022/11/26 12:08:21;;;;;;;13.27;2.67;;;;;;;;;;5003822;28;20040;-69
2022/11/26 12:10:47;;;;;;;4.30;0.98;;;;;;;;;;5002322;28;20033;-69
2022/11/26 12:13:13;;;;;;;19.23;2.80;;;;;;;;;;4993805;28;20230;-69
2022/11/26 12:15:50;;;;;;;8.82;2.50;;;;;;;;;;4997292;28;20034;-69
2022/11/26 12:18:22;;;;;;;11.70;3.20;;;;;;;;;;4994717;28;20026;-69
2022/11/26 12:20:55;;;;;;;8.18;1.27;;;;;;;;;;5002401;28;20029;-69
2022/11/26 12:23:23;;;;;;;17.48;2.53;;;;;;;;;;4999090;28;20093;-69
2022/11/26 12:25:58;;;;;;;6.65;1.90;;;;;;;;;;4996136;28;20034;-70
2022/11/26 12:28:26;;;;;;;13.85;3.20;;;;;;;;;;5000812;28;20057;-69
2022/11/26 12:30:58;;;;;;;9.18;2.90;;;;;;;;;;4998602;28;20034;-69
2022/11/26 12:33:33;;;;;;;14.65;3.13;;;;;;;;;;5005605;28;20018;-69
2022/11/26 12:36:03;;;;;;;12.77;3.17;;;;;;;;;;4996516;28;20371;-69
2022/11/26 12:38:28;;;;;;;;;;;;;;;;;;4999261;28;20030;-69
2022/11/26 12:40:53;;;;;;;6.50;1.77;;;;;;;;;;5001785;28;19914;-68
2022/11/26 12:43:38;;;;;;;9.77;2.42;;;;;;;;;;4989238;28;20466;-68
2022/11/26 12:46:23;;;;;;;13.27;3.42;;;;;;;;;;5001196;28;20045;-69
2022/11/26 12:48:51;;;;;;;8.25;1.75;;;;;;;;;;4997343;28;20029;-68
2022/11/26 12:51:20;;;;;;;14.75;3.67;;;;;;;;;;4997940;28;20037;-68
2022/11/26 12:54:01;;;;;;;13.63;2.25;;;;;;;;;;4998233;28;20064;-69
2022/11/26 12:56:26;;;;;;;;;;;;;;;;;;4998356;28;20164;-69
2022/11/26 12:58:54;;;;;;;11.93;2.58;;;;;;;;;;5002670;28;20024;-68
2022/11/26 13:01:19;;;;;;;8.00;1.63;;;;;;;;;;5005218;28;20065;-68
2022/11/26 13:03:45;;;;;;;3.50;0.85;;;;;;;;;;5004589;28;20506;-68
2022/11/26 13:06:13;;;;;;;14.57;2.63;;;;;;;;;;5002655;28;20030;-68
2022/11/26 13:08:38;;;;;;;10.20;2.03;;;;;;;;;;4994370;28;20482;-68
2022/11/26 13:11:10;;;;;;;7.93;2.63;;;;;;;;;;5005814;28;20026;-68
2022/11/26 13:13:35;;;;;;;7.88;1.80;;;;;;;;;;5002003;28;20037;-68
2022/11/26 13:16:00;;;;;;;20.88;2.55;;;;;;;;;;4999621;28;20080;-69
2022/11/26 13:18:47;;;;;;;4.78;1.67;;;;;;;;;;5003254;28;20026;-69
2022/11/26 13:21:31;;;;;;;5.00;1.83;;;;;;;;;;4998469;28;20049;-68
2022/11/26 13:23:59;;;;;;;7.75;2.70;;;;;;;;;;5006528;28;20293;-69
2022/11/26 13:26:34;;;;;;;19.92;2.47;;;;;;;;;;5003364;28;20049;-69
2022/11/26 13:29:05;;;;;;;16.45;3.00;;;;;;;;;;5002772;28;20080;-69
2022/11/26 13:31:41;;;;;;;4.30;1.50;;;;;;;;;;4999026;28;20034;-69
2022/11/26 13:34:30;;;;;;;1.92;0.90;;;;;;;;;;5003462;28;20529;-69
2022/11/26 13:37:07;;;;;;;12.30;2.10;;;;;;;;;;5000650;28;20474;-69
2022/11/26 13:39:41;;;;;;;5.57;2.28;;;;;;;;;;4996635;28;20505;-69
2022/11/26 13:42:29;;;;;;;8.85;2.50;;;;;;;;;;4997952;28;20406;-69
2022/11/26 13:45:00;;;;;;;6.10;1.88;;;;;;;;;;4997159;28;21024;-69
2022/11/26 13:47:45;;;;;;;10.43;2.38;;;;;;;;;;5002240;28;20109;-69
2022/11/26 13:50:11;;;;;;;5.35;1.77;;;;;;;;;;5002862;28;20479;-68
2022/11/26 13:52:49;;;;;;;12.80;3.50;;;;;;;;;;4998127;28;20030;-68
2022/11/26 13:55:19;;;;;;;11.02;3.15;;;;;;;;;;5006638;28;20026;-69
2022/11/26 13:57:53;;;;;;;10.73;3.05;;;;;;;;;;5003806;28;20378;-69
2022/11/26 14:00:23;;;;;;;15.65;3.42;;;;;;;;;;5002312;28;20022;-68
2022/11/26 14:02:48;;;;;;;4.65;2.00;;;;;;;;;;5006805;28;20026;-68
2022/11/26 14:05:15;;;;;;;16.77;1.30;;;;;;;;;;5004533;28;20433;-68
2022/11/26 14:07:40;;;;;;;10.88;4.15;;;;;;;;;;4999517;28;20317;-69
2022/11/26 14:10:07;;;;;;;13.18;4.70;;;;;;;;;;5005261;28;20445;-69
2022/11/26 14:12:51;;;;;;;13.80;3.95;;;;;;;;;;5000265;28;20022;-68
2022/11/26 14:15:35;;;;;;;7.28;2.58;;;;;;;;;;4998818;28;20109;-71
2022/11/26 14:18:00;;;;;;;6.55;2.42;;;;;;;;;;5003083;28;20022;-69
2022/11/26 14:20:25;;;;;;;10.20;2.53;;;;;;;;;;5001783;28;20022;-69
2022/11/26 14:22:51;;;;;;;3.83;1.63;;;;;;;;;;5003299;28;20281;-69
2022/11/26 14:25:35;;;;;;;19.20;3.67;;;;;;;;;;5000151;28;20270;-69
2022/11/26 14:28:02;;;;;;;8.77;2.30;;;;;;;;;;4999945;28;20283;-69
2022/11/26 14:30:28;;;;;;;12.55;3.17;;;;;;;;;;4999155;28;20112;-69
2022/11/26 14:33:16;;;;;;;12.82;2.80;;;;;;;;;;4996028;28;20041;-69
2022/11/26 14:35:51;;;;;;;7.72;2.10;;;;;;;;;;5012089;28;20628;-69